Time;durP1;ratioP1;P1;durP2;ratioP2;P2;SDS_P1;SDS_P2;PMS_P1;PMS_P2;Temp;Humidity;BMP_temperature;BMP_pressure;BME280_temperature;BME280_humidity;BME280_pressure;Samples;Min_cycle;Max_cycle;Signal;HPM_P1;HPM_P2
2021/04/19 00:01:50;;;;;;;8.90;8.00;;;;;;;7.33;57.80;95566.75;6863216;28;20229;-73
2021/04/19 00:05:13;;;;;;;11.33;8.80;;;;;;;7.23;57.58;95563.91;6864637;28;20271;-73
2021/04/19 00:08:34;;;;;;;10.33;8.97;;;;;;;7.20;58.26;95555.34;6870542;28;20260;-74
2021/04/19 00:11:54;;;;;;;10.07;9.07;;;;;;;7.17;58.57;95550.28;6870100;28;20279;-74
2021/04/19 00:15:18;;;;;;;10.40;8.83;;;;;;;7.17;58.21;95556.41;6876526;28;20959;-73
2021/04/19 00:18:38;;;;;;;10.27;8.90;;;;;;;7.17;57.98;95551.13;6873650;28;20310;-73
2021/04/19 00:21:58;;;;;;;9.70;8.70;;;;;;;7.16;58.15;95552.06;6881854;28;20221;-73
2021/04/19 00:25:19;;;;;;;11.40;9.37;;;;;;;7.11;58.15;95538.34;6871112;28;20241;-73
2021/04/19 00:28:39;;;;;;;10.17;9.17;;;;;;;7.13;58.41;95540.91;6881188;28;20244;-74
2021/04/19 00:32:00;;;;;;;10.10;9.10;;;;;;;7.14;58.25;95538.13;6889119;28;20220;-73
2021/04/19 00:35:23;;;;;;;11.40;10.20;;;;;;;7.12;59.02;95547.13;6876671;28;20766;-74
2021/04/19 00:38:43;;;;;;;12.10;9.33;;;;;;;7.08;58.90;95543.84;6863332;28;20311;-73
2021/04/19 00:42:04;;;;;;;12.37;10.57;;;;;;;7.04;59.16;95544.19;6879188;28;20220;-74
2021/04/19 00:45:24;;;;;;;13.67;9.90;;;;;;;6.96;58.80;95541.22;6872827;28;20600;-74
2021/04/19 00:48:45;;;;;;;11.60;10.40;;;;;;;6.89;59.06;95536.38;6859747;28;20232;-72
2021/04/19 00:52:06;;;;;;;11.23;10.03;;;;;;;6.87;59.44;95543.56;6871117;28;20221;-73
2021/04/19 00:55:29;;;;;;;10.87;9.53;;;;;;;6.90;59.19;95534.56;6884663;28;20227;-72
2021/04/19 00:58:50;;;;;;;12.20;10.13;;;;;;;6.92;58.98;95524.75;6878864;28;20248;-72
2021/04/19 01:02:11;;;;;;;11.97;10.60;;;;;;;6.94;59.30;95532.59;6875840;28;20225;-74
2021/04/19 01:05:36;;;;;;;11.10;10.10;;;;;;;6.94;59.54;95525.47;6891351;28;20680;-72
2021/04/19 01:08:57;;;;;;;15.07;10.93;;;;;;;6.96;59.68;95530.66;6869683;28;20236;-73
2021/04/19 01:12:17;;;;;;;12.57;11.17;;;;;;;6.93;59.79;95525.59;6876965;28;20252;-74
2021/04/19 01:15:38;;;;;;;12.87;11.00;;;;;;;6.89;60.20;95530.25;6881970;28;20224;-74
2021/04/19 01:18:58;;;;;;;12.13;10.93;;;;;;;6.86;60.06;95533.09;6876347;28;20868;-73
2021/04/19 01:22:19;;;;;;;11.93;10.70;;;;;;;6.82;60.27;95524.56;6878284;28;20779;-75
2021/04/19 01:25:40;;;;;;;12.27;10.20;;;;;;;6.77;60.48;95531.09;6883502;28;20645;-73
2021/04/19 01:29:00;;;;;;;12.03;10.63;;;;;;;6.73;60.70;95534.91;6857492;28;20217;-73
2021/04/19 01:32:20;;;;;;;12.60;10.83;;;;;;;6.67;60.51;95533.53;6870477;28;20216;-73
2021/04/19 01:35:42;;;;;;;12.87;10.63;;;;;;;6.56;60.49;95525.50;6873542;28;20230;-74
2021/04/19 01:39:03;;;;;;;11.73;10.40;;;;;;;6.49;60.49;95526.06;6891588;28;20222;-73
2021/04/19 01:42:26;;;;;;;13.27;10.93;;;;;;;6.47;60.56;95534.91;6894790;28;20228;-74
2021/04/19 01:45:48;;;;;;;12.17;10.97;;;;;;;6.44;60.74;95524.56;6878254;28;20431;-73
2021/04/19 01:49:18;;;;;;;12.93;11.53;;;;;;;6.39;60.31;95523.16;6894805;28;20263;-73
2021/04/19 01:52:39;;;;;;;12.53;11.20;;;;;;;6.34;60.79;95527.91;6865970;28;20244;-73
2021/04/19 01:56:02;;;;;;;10.60;9.50;;;;;;;6.32;61.38;95524.56;6872468;28;20229;-73
2021/04/19 01:59:23;;;;;;;14.13;11.27;;;;;;;6.32;61.57;95521.91;6868777;28;20300;-72
2021/04/19 02:03:06;;;;;;;16.53;11.33;;;;;;;6.21;61.40;95527.06;6872470;28;20260;-72
2021/04/19 02:06:59;;;;;;;13.80;11.63;;;;;;;6.09;60.72;95531.34;6885114;28;20725;-73
2021/04/19 02:10:42;;;;;;;12.80;11.47;;;;;;;6.04;61.12;95528.19;6876307;28;20235;-74
2021/04/19 02:14:19;;;;;;;12.70;11.37;;;;;;;5.97;60.99;95524.28;6879583;28;20228;-76
2021/04/19 02:18:04;;;;;;;14.00;11.93;;;;;;;5.93;61.37;95521.03;6881943;28;20304;-74
2021/04/19 02:21:44;;;;;;;14.50;11.70;;;;;;;5.92;61.46;95529.00;6863780;28;20225;-73
2021/04/19 02:25:12;;;;;;;13.50;11.50;;;;;;;5.88;62.15;95527.53;6883333;28;20695;-72
2021/04/19 02:28:37;;;;;;;15.03;11.63;;;;;;;5.88;63.04;95533.66;6878796;28;20894;-72
2021/04/19 02:32:00;;;;;;;15.43;12.90;;;;;;;5.92;63.55;95531.66;6869580;28;20224;-74
2021/04/19 02:35:27;;;;;;;15.53;12.90;;;;;;;5.97;64.00;95534.81;6857721;28;20213;-73
2021/04/19 02:38:50;;;;;;;15.80;12.10;;;;;;;5.96;62.80;95535.78;6873895;28;20243;-74
2021/04/19 02:42:12;;;;;;;14.60;12.50;;;;;;;5.91;62.15;95543.13;6877096;28;20661;-72
2021/04/19 02:45:33;;;;;;;16.10;13.10;;;;;;;5.85;62.97;95544.34;6876884;28;20243;-74
2021/04/19 02:48:53;;;;;;;13.47;12.07;;;;;;;5.87;63.26;95546.91;6867207;28;20725;-73
2021/04/19 02:52:15;;;;;;;14.47;11.60;;;;;;;5.90;63.30;95546.72;6883992;28;20247;-74
2021/04/19 02:55:35;;;;;;;12.83;11.53;;;;;;;5.87;62.94;95541.66;6879841;28;20225;-73
2021/04/19 02:58:59;;;;;;;15.77;12.73;;;;;;;5.82;62.89;95538.44;6874746;28;20333;-73
2021/04/19 03:02:25;;;;;;;13.13;11.60;;;;;;;5.81;63.01;95544.66;6877250;28;20279;-74
2021/04/19 03:05:48;;;;;;;14.77;12.53;;;;;;;5.78;63.13;95542.22;6872285;28;20213;-72
2021/04/19 03:09:10;;;;;;;13.20;11.80;;;;;;;5.74;63.64;95538.06;6870076;28;20220;-74
2021/04/19 03:12:31;;;;;;;12.63;10.93;;;;;;;5.78;63.30;95543.06;6875980;28;20220;-74
2021/04/19 03:15:53;;;;;;;15.53;12.30;;;;;;;5.79;63.82;95544.75;6877921;28;20243;-73
2021/04/19 03:19:15;;;;;;;14.10;12.13;;;;;;;5.74;63.27;95546.84;6864589;28;20216;-72
2021/04/19 03:22:37;;;;;;;16.07;13.40;;;;;;;5.60;62.82;95542.47;6894365;28;20217;-73
2021/04/19 03:25:58;;;;;;;16.27;12.50;;;;;;;5.50;63.36;95545.78;6877582;28;20224;-73
2021/04/19 03:29:21;;;;;;;15.97;12.67;;;;;;;5.44;63.58;95548.81;6880889;28;20221;-73
2021/04/19 03:32:44;;;;;;;15.93;12.93;;;;;;;5.43;63.71;95541.88;6858088;28;20668;-71
2021/04/19 03:36:06;;;;;;;14.23;12.17;;;;;;;5.41;64.05;95547.22;6868298;28;20248;-73
2021/04/19 03:39:27;;;;;;;14.03;12.33;;;;;;;5.38;63.74;95547.41;6874369;28;20225;-72
2021/04/19 03:42:49;;;;;;;15.10;13.50;;;;;;;5.31;63.49;95546.13;6854185;28;20710;-72
2021/04/19 03:46:11;;;;;;;15.00;13.50;;;;;;;5.30;63.77;95547.06;6876924;28;20586;-72
2021/04/19 03:49:39;;;;;;;16.27;13.10;;;;;;;5.25;63.97;95541.25;6894035;28;20288;-73
2021/04/19 03:53:00;;;;;;;14.40;12.93;;;;;;;5.26;63.61;95539.47;6849833;28;20236;-72
2021/04/19 03:56:21;;;;;;;16.13;14.33;;;;;;;5.29;63.63;95548.00;6872934;28;20275;-73
2021/04/19 03:59:44;;;;;;;16.10;14.20;;;;;;;5.33;63.93;95549.50;6880542;28;20300;-73
2021/04/19 04:03:07;;;;;;;13.80;12.37;;;;;;;5.35;63.96;95544.97;6877636;28;20323;-73
2021/04/19 04:06:27;;;;;;;16.27;14.00;;;;;;;5.31;63.59;95540.88;6861093;28;20217;-72
2021/04/19 04:09:49;;;;;;;17.33;13.80;;;;;;;5.19;63.13;95537.22;6868971;28;20316;-71
2021/04/19 04:13:09;;;;;;;18.23;13.40;;;;;;;5.12;63.13;95540.34;6868796;28;20225;-73
2021/04/19 04:16:32;;;;;;;18.37;14.33;;;;;;;5.07;63.53;95537.16;6867286;28;20245;-72
2021/04/19 04:19:53;;;;;;;15.53;13.93;;;;;;;5.07;64.09;95545.91;6858164;28;20233;-72
2021/04/19 04:23:15;;;;;;;17.93;14.30;;;;;;;5.11;64.01;95542.13;6880670;28;20291;-72
2021/04/19 04:26:35;;;;;;;21.93;14.67;;;;;;;5.08;64.48;95542.28;6859482;28;20318;-71
2021/04/19 04:30:00;;;;;;;18.07;15.00;;;;;;;5.13;64.56;95547.31;6877326;28;20229;-73
2021/04/19 04:33:21;;;;;;;19.77;15.57;;;;;;;5.14;64.83;95551.59;6894700;28;20231;-72
2021/04/19 04:36:41;;;;;;;18.97;15.77;;;;;;;5.11;64.65;95550.03;6874099;28;20213;-72
2021/04/19 04:40:02;;;;;;;17.43;14.47;;;;;;;5.11;64.98;95555.28;6870787;28;20268;-72
2021/04/19 04:43:26;;;;;;;16.23;13.53;;;;;;;5.12;64.68;95556.97;6872770;28;20308;-72
2021/04/19 04:47:14;;;;;;;17.43;15.17;;;;;;;5.08;64.17;95550.19;6884872;28;20216;-72
2021/04/19 04:50:48;;;;;;;16.33;14.40;;;;;;;5.10;64.96;95544.84;6870067;28;20252;-72
2021/04/19 04:54:16;;;;;;;21.17;14.73;;;;;;;5.08;64.80;95546.75;6874742;28;20220;-72
2021/04/19 04:57:37;;;;;;;20.00;15.20;;;;;;;5.08;64.76;95544.94;6887252;28;20225;-71
2021/04/19 05:00:58;;;;;;;20.63;15.03;;;;;;;5.13;64.19;95550.75;6863407;28;20365;-72
2021/04/19 05:04:19;;;;;;;15.00;13.50;;;;;;;5.17;64.87;95554.91;6884819;28;20217;-73
2021/04/19 05:07:42;;;;;;;15.47;13.87;;;;;;;5.18;64.85;95548.69;6866492;28;20332;-73
2021/04/19 05:11:05;;;;;;;16.20;13.17;;;;;;;5.16;64.36;95542.69;6862312;28;20221;-72
2021/04/19 05:14:26;;;;;;;14.20;12.73;;;;;;;5.21;64.74;95545.03;6874945;28;20228;-73
2021/04/19 05:17:47;;;;;;;14.13;12.43;;;;;;;5.26;64.18;95548.22;6858170;28;20217;-72
2021/04/19 05:21:07;;;;;;;15.27;12.63;;;;;;;5.33;64.14;95544.22;6890370;28;20970;-71
2021/04/19 05:24:27;;;;;;;15.83;13.93;;;;;;;5.38;64.60;95546.59;6849385;28;20295;-72
2021/04/19 05:27:48;;;;;;;16.83;13.07;;;;;;;5.47;64.58;95551.25;6838950;28;20312;-71
2021/04/19 05:31:10;;;;;;;16.80;13.47;;;;;;;5.57;64.26;95547.94;6868325;28;20297;-71
2021/04/19 05:34:30;;;;;;;18.90;16.90;;;;;;;5.66;64.19;95546.50;6869062;28;20691;-72
2021/04/19 05:37:51;;;;;;;18.77;15.40;;;;;;;5.79;63.98;95554.44;6872744;28;20280;-73
2021/04/19 05:41:14;;;;;;;16.50;14.87;;;;;;;5.99;63.97;95551.38;6870627;28;20766;-71
2021/04/19 05:44:35;;;;;;;14.93;13.33;;;;;;;6.20;63.79;95560.50;6870301;28;20336;-71
2021/04/19 05:47:56;;;;;;;15.90;14.00;;;;;;;6.36;63.19;95562.94;6865433;28;20228;-73
2021/04/19 05:51:26;;;;;;;14.13;12.40;;;;;;;6.53;63.37;95554.75;6878730;28;20229;-72
2021/04/19 05:54:46;;;;;;;14.23;12.70;;;;;;;6.71;62.68;95553.47;6867264;28;20220;-71
2021/04/19 05:58:26;;;;;;;13.60;12.13;;;;;;;6.92;62.51;95555.59;6864984;28;20228;-74
2021/04/19 06:01:49;;;;;;;16.20;12.70;;;;;;;7.09;62.09;95548.16;6853175;28;20247;-72
2021/04/19 06:05:32;;;;;;;13.13;11.83;;;;;;;7.29;61.80;95549.44;6857083;28;20300;-71
2021/04/19 06:09:07;;;;;;;14.23;11.83;;;;;;;7.50;61.15;95557.59;6863661;28;20232;-71
2021/04/19 06:12:31;;;;;;;13.37;10.83;;;;;;;7.61;60.50;95553.22;6892302;28;20252;-72
2021/04/19 06:15:52;;;;;;;12.00;10.67;;;;;;;7.75;59.65;95552.22;6885456;28;20246;-73
2021/04/19 06:19:15;;;;;;;11.30;10.10;;;;;;;7.92;60.03;95557.13;6887428;28;20225;-72
2021/04/19 06:22:35;;;;;;;18.50;14.43;;;;;;;8.09;59.65;95561.19;6873724;28;20311;-71
2021/04/19 06:25:56;;;;;;;12.53;11.23;;;;;;;8.27;59.35;95548.38;6895951;28;20207;-73
2021/04/19 06:29:25;;;;;;;12.00;10.73;;;;;;;8.48;58.95;95541.50;6890008;28;20227;-73
2021/04/19 06:32:48;;;;;;;10.93;9.87;;;;;;;8.65;58.05;95541.03;6869133;28;20217;-72
2021/04/19 06:36:08;;;;;;;10.93;9.83;;;;;;;8.84;57.74;95551.06;6887215;28;20221;-72
2021/04/19 06:39:29;;;;;;;10.57;9.50;;;;;;;8.98;57.59;95545.56;6853220;28;20228;-71
2021/04/19 06:42:52;;;;;;;11.10;9.33;;;;;;;9.17;56.84;95534.34;6905143;28;20646;-73
2021/04/19 06:46:13;;;;;;;10.50;9.33;;;;;;;9.38;56.68;95537.94;6875467;28;20224;-72
2021/04/19 06:49:35;;;;;;;10.13;9.20;;;;;;;9.60;56.42;95527.34;6845404;28;20369;-72
2021/04/19 06:52:59;;;;;;;10.10;9.17;;;;;;;9.88;55.51;95526.75;6865379;28;20235;-71
2021/04/19 06:56:26;;;;;;;10.87;9.77;;;;;;;10.17;54.83;95521.75;6844118;28;20654;-72
2021/04/19 06:59:50;;;;;;;9.87;8.93;;;;;;;10.43;54.07;95518.72;6869006;28;20245;-73
2021/04/19 07:03:10;;;;;;;10.07;9.07;;;;;;;10.65;53.38;95516.81;6862464;28;20249;-75
2021/04/19 07:06:35;;;;;;;9.83;8.93;;;;;;;10.95;52.95;95512.50;6850474;28;20613;-74
2021/04/19 07:09:57;;;;;;;9.63;8.63;;;;;;;11.25;52.41;95514.31;6856528;28;20225;-73
2021/04/19 07:13:18;;;;;;;10.07;9.03;;;;;;;11.55;51.90;95517.78;6852537;28;20699;-73
2021/04/19 07:16:41;;;;;;;11.97;9.20;;;;;;;11.79;50.71;95512.13;6857628;28;20220;-74
2021/04/19 07:20:06;;;;;;;9.63;8.73;;;;;;;12.11;50.47;95514.56;6853323;28;20213;-75
2021/04/19 07:23:28;;;;;;;9.47;8.47;;;;;;;12.44;49.71;95508.78;6875867;28;20707;-73
2021/04/19 07:26:50;;;;;;;9.50;8.47;;;;;;;12.80;48.83;95507.22;6850518;28;20228;-73
2021/04/19 07:30:11;;;;;;;9.33;8.43;;;;;;;13.24;48.06;95499.53;6883999;28;20248;-72
2021/04/19 07:33:36;;;;;;;9.83;8.53;;;;;;;13.72;47.08;95499.31;6911749;28;20231;-73
2021/04/19 07:36:57;;;;;;;10.53;8.37;;;;;;;14.12;46.16;95494.41;6892224;28;20216;-74
2021/04/19 07:40:33;;;;;;;9.10;8.20;;;;;;;14.58;45.58;95489.84;6883965;28;20928;-74
2021/04/19 07:43:53;;;;;;;8.87;7.77;;;;;;;15.03;44.08;95477.16;6891095;28;20263;-73
2021/04/19 07:47:20;;;;;;;10.40;7.93;;;;;;;15.44;43.29;95480.84;6884993;28;20678;-73
2021/04/19 07:50:40;;;;;;;9.37;8.37;;;;;;;15.89;42.66;95475.19;6896623;28;20229;-72
2021/04/19 07:54:18;;;;;;;10.10;8.00;;;;;;;16.29;40.92;95479.84;6890116;28;20319;-74
2021/04/19 07:57:39;;;;;;;9.10;7.33;;;;;;;16.63;40.33;95479.72;6887618;28;20213;-73
2021/04/19 08:01:04;;;;;;;9.60;8.60;;;;;;;17.01;40.14;95477.31;6872501;28;20223;-74
2021/04/19 08:04:24;;;;;;;8.97;8.10;;;;;;;17.45;38.28;95470.50;6896478;28;20259;-73
2021/04/19 08:07:54;;;;;;;10.00;8.13;;;;;;;17.77;37.41;95477.63;6888465;28;20235;-73
2021/04/19 08:11:17;;;;;;;8.27;7.57;;;;;;;17.95;36.44;95474.72;6883541;28;20229;-72
2021/04/19 08:14:57;;;;;;;10.33;9.20;;;;;;;18.10;35.72;95477.50;6895690;28;20206;-73
2021/04/19 08:18:22;;;;;;;9.10;8.20;;;;;;;18.07;34.31;95470.59;6892497;28;20220;-74
2021/04/19 08:21:42;;;;;;;9.20;8.30;;;;;;;18.35;34.88;95471.78;6896405;28;20228;-73
2021/04/19 08:25:17;;;;;;;9.07;8.17;;;;;;;18.70;34.52;95466.84;6886219;28;20219;-74
2021/04/19 08:28:48;;;;;;;9.17;8.27;;;;;;;19.06;34.24;95465.16;6900589;28;20228;-75
2021/04/19 08:32:12;;;;;;;9.13;8.23;;;;;;;19.29;33.21;95460.56;6894915;28;20224;-72
2021/04/19 08:35:35;;;;;;;10.00;8.17;;;;;;;19.46;32.42;95463.97;6876662;28;20247;-73
2021/04/19 08:38:55;;;;;;;9.47;8.57;;;;;;;18.97;32.34;95470.81;6885122;28;20224;-73
2021/04/19 08:42:18;;;;;;;9.37;7.77;;;;;;;18.68;32.66;95468.88;6883999;28;20270;-73
2021/04/19 08:45:40;;;;;;;8.53;7.73;;;;;;;18.70;31.95;95473.06;6887933;28;20268;-73
2021/04/19 08:49:02;;;;;;;9.70;8.67;;;;;;;18.90;31.44;95465.34;6875636;28;20271;-73
2021/04/19 08:52:23;;;;;;;9.40;8.50;;;;;;;19.45;31.42;95466.84;6899018;28;20274;-73
2021/04/19 08:55:45;;;;;;;8.53;7.43;;;;;;;20.20;30.78;95467.41;6878039;28;20259;-75
2021/04/19 08:59:06;;;;;;;8.17;7.37;;;;;;;20.92;29.49;95468.16;6894013;28;20232;-74
2021/04/19 09:02:26;;;;;;;7.27;6.67;;;;;;;21.43;28.46;95467.13;6894046;28;20435;-76
2021/04/19 09:05:52;;;;;;;6.90;5.87;;;;;;;21.57;28.24;95469.72;6891135;28;20862;-76
2021/04/19 09:09:33;;;;;;;6.70;6.10;;;;;;;20.93;27.38;95474.38;6898780;28;20235;-73
2021/04/19 09:12:54;;;;;;;7.63;6.93;;;;;;;20.13;27.97;95475.41;6910147;28;20217;-74
2021/04/19 09:16:17;;;;;;;18.77;14.63;;;;;;;20.08;28.87;95471.59;6882220;28;20611;-73
2021/04/19 09:19:39;;;;;;;11.90;10.70;;;;;;;19.78;28.36;95469.97;6893885;28;20661;-73
2021/04/19 09:23:22;;;;;;;8.23;7.43;;;;;;;19.26;29.60;95469.00;6899358;28;20721;-73
2021/04/19 09:26:43;;;;;;;6.20;5.60;;;;;;;18.71;29.04;95466.66;6901773;28;20885;-74
2021/04/19 09:30:31;;;;;;;7.37;6.67;;;;;;;18.48;29.59;95467.66;6885868;28;20965;-74
2021/04/19 09:34:10;;;;;;;7.70;7.00;;;;;;;18.33;29.98;95462.22;6865284;28;20471;-74
2021/04/19 09:37:53;;;;;;;8.77;7.23;;;;;;;18.29;31.01;95471.66;6881441;28;20207;-74
2021/04/19 09:41:18;;;;;;;6.93;6.17;;;;;;;18.17;30.40;95468.53;6896592;28;20779;-72
2021/04/19 09:44:49;;;;;;;10.10;6.80;;;;;;;17.99;30.72;95465.28;6888190;28;20825;-73
2021/04/19 09:48:28;;;;;;;8.03;5.80;;;;;;;17.66;31.31;95471.81;6895092;28;20257;-72
2021/04/19 09:51:48;;;;;;;9.13;7.60;;;;;;;17.15;31.87;95473.97;6894442;28;20321;-73
2021/04/19 09:55:09;;;;;;;7.17;6.47;;;;;;;16.63;32.47;95474.34;6878115;28;21026;-72
2021/04/19 09:58:30;;;;;;;6.93;6.17;;;;;;;16.26;32.97;95469.44;6892379;28;20222;-75
2021/04/19 10:01:52;;;;;;;8.13;7.33;;;;;;;15.97;33.88;95477.06;6870814;28;20232;-73
2021/04/19 10:05:15;;;;;;;8.80;7.10;;;;;;;15.69;34.38;95478.34;6901284;28;20709;-72
2021/04/19 10:08:40;;;;;;;7.77;7.07;;;;;;;15.52;34.75;95472.06;6880412;28;20225;-73
2021/04/19 10:12:03;;;;;;;7.57;6.87;;;;;;;15.49;35.06;95471.53;6902841;28;20217;-73
2021/04/19 10:15:25;;;;;;;7.37;6.63;;;;;;;15.37;35.32;95470.97;6889299;28;20219;-73
2021/04/19 10:18:53;;;;;;;9.30;6.87;;;;;;;15.24;35.42;95470.56;6899610;28;20305;-73
2021/04/19 10:22:14;;;;;;;8.23;6.20;;;;;;;15.12;35.75;95474.50;6884389;28;20239;-77
2021/04/19 10:25:43;;;;;;;8.73;6.13;;;;;;;15.11;35.78;95468.31;6884730;28;20224;-77
2021/04/19 10:29:17;;;;;;;6.77;6.17;;;;;;;15.05;35.59;95471.63;6898118;28;20221;-73
2021/04/19 10:32:40;;;;;;;6.20;5.57;;;;;;;14.94;35.05;95463.84;6895095;28;20647;-76
2021/04/19 10:36:16;;;;;;;7.00;6.23;;;;;;;14.87;35.65;95465.50;6888221;28;20220;-74
2021/04/19 10:39:39;;;;;;;6.90;6.20;;;;;;;14.79;36.01;95471.63;6902565;28;20213;-73
2021/04/19 10:43:12;;;;;;;7.97;6.07;;;;;;;14.77;36.42;95465.59;6900885;28;20224;-74
2021/04/19 10:46:37;;;;;;;7.77;6.37;;;;;;;14.74;36.51;95462.38;6875028;28;20342;-76
2021/04/19 10:50:03;;;;;;;10.27;6.73;;;;;;;14.74;37.06;95460.53;6870946;28;20949;-77
2021/04/19 10:53:37;;;;;;;7.20;6.50;;;;;;;14.76;37.05;95453.22;6874467;28;20216;-75
2021/04/19 10:56:59;;;;;;;6.47;5.73;;;;;;;14.74;36.92;95457.03;6867994;28;20216;-74
2021/04/19 11:00:22;;;;;;;6.90;6.20;;;;;;;14.66;36.67;95463.19;6868483;28;20229;-76
2021/04/19 11:03:43;;;;;;;7.27;6.30;;;;;;;14.54;35.89;95459.91;6862523;28;20695;-74
2021/04/19 11:07:35;;;;;;;8.77;6.00;;;;;;;14.43;36.34;95457.50;6870669;28;20217;-74
2021/04/19 11:10:55;;;;;;;7.20;6.50;;;;;;;14.40;36.77;95449.78;6853327;28;20992;-73
2021/04/19 11:14:18;;;;;;;6.47;5.87;;;;;;;14.37;36.39;95458.13;6853348;28;20213;-73
2021/04/19 11:17:39;;;;;;;7.10;5.23;;;;;;;14.42;36.43;95453.16;6870912;28;20210;-75
2021/04/19 11:21:01;;;;;;;7.40;6.70;;;;;;;14.35;36.42;95452.03;6867871;28;20271;-74
2021/04/19 11:24:34;;;;;;;7.93;7.13;;;;;;;14.24;36.81;95454.94;6834963;28;20248;-74
2021/04/19 11:28:18;;;;;;;7.30;6.60;;;;;;;14.19;36.83;95452.72;6854855;28;20214;-74
2021/04/19 11:31:46;;;;;;;8.57;6.37;;;;;;;14.11;37.44;95457.16;6897890;28;20213;-72
2021/04/19 11:35:18;;;;;;;8.70;7.17;;;;;;;14.10;37.74;95461.66;6891055;28;20296;-73
2021/04/19 11:38:40;;;;;;;9.17;7.60;;;;;;;14.12;37.87;95449.00;6877626;28;20307;-74
2021/04/19 11:42:01;;;;;;;7.53;6.73;;;;;;;14.25;37.87;95453.13;6872901;28;20220;-73
2021/04/19 11:45:23;;;;;;;7.23;6.47;;;;;;;14.41;37.42;95459.47;6870609;28;20221;-74
2021/04/19 11:48:49;;;;;;;8.73;7.00;;;;;;;14.44;36.58;95459.16;6852323;28;20233;-74
2021/04/19 11:52:10;;;;;;;6.93;6.20;;;;;;;14.50;36.63;95457.69;6876957;28;20221;-73
2021/04/19 11:55:30;;;;;;;7.10;6.37;;;;;;;14.50;36.84;95460.38;6871123;28;20589;-73
2021/04/19 11:58:51;;;;;;;9.30;6.57;;;;;;;14.50;36.52;95457.69;6841620;28;20778;-73
2021/04/19 12:02:11;;;;;;;7.03;5.93;;;;;;;14.53;36.45;95454.75;6864439;28;20253;-75
2021/04/19 12:05:31;;;;;;;8.93;7.93;;;;;;;14.47;35.91;95458.03;6872613;28;20312;-74
2021/04/19 12:08:52;;;;;;;7.20;6.50;;;;;;;14.38;36.50;95459.78;6879153;28;20225;-73
2021/04/19 12:12:15;;;;;;;6.57;5.87;;;;;;;14.37;36.72;95462.63;6867266;28;20640;-73
2021/04/19 12:15:35;;;;;;;6.53;5.60;;;;;;;14.35;36.60;95454.72;6879999;28;20664;-73
2021/04/19 12:18:57;;;;;;;8.67;6.70;;;;;;;14.27;36.46;95451.13;6894593;28;20727;-73
2021/04/19 12:22:17;;;;;;;7.47;6.40;;;;;;;14.23;37.00;95453.28;6884477;28;20220;-72
2021/04/19 12:25:37;;;;;;;7.63;6.60;;;;;;;14.24;37.35;95456.78;6873147;28;20307;-74
2021/04/19 12:28:58;;;;;;;6.70;6.10;;;;;;;14.19;37.28;95458.06;6883886;28;20237;-73
2021/04/19 12:32:18;;;;;;;7.93;6.37;;;;;;;14.12;37.43;95458.84;6884490;28;20891;-73
2021/04/19 12:35:39;;;;;;;6.43;5.83;;;;;;;14.08;37.91;95462.81;6871739;28;20228;-73
2021/04/19 12:39:00;;;;;;;7.17;6.03;;;;;;;14.05;37.65;95463.13;6887658;28;20244;-74
2021/04/19 12:42:20;;;;;;;7.50;5.90;;;;;;;13.94;37.73;95461.50;6885211;28;20252;-73
2021/04/19 12:45:44;;;;;;;7.83;6.30;;;;;;;13.94;38.21;95460.66;6901776;28;20295;-73
2021/04/19 12:49:07;;;;;;;7.40;6.37;;;;;;;13.87;37.98;95459.59;6870449;28;20225;-73
2021/04/19 12:52:27;;;;;;;6.67;5.97;;;;;;;13.79;38.02;95467.50;6898296;28;20239;-73
2021/04/19 12:55:48;;;;;;;8.10;6.43;;;;;;;13.72;38.59;95459.28;6898719;28;20221;-73
2021/04/19 12:59:08;;;;;;;6.73;6.03;;;;;;;13.71;38.81;95460.25;6899446;28;20303;-73
2021/04/19 13:02:31;;;;;;;8.77;5.80;;;;;;;13.69;39.45;95459.56;6884914;28;20725;-74
2021/04/19 13:05:51;;;;;;;7.13;6.43;;;;;;;13.58;39.51;95465.94;6886229;28;20219;-73
2021/04/19 13:09:14;;;;;;;8.00;6.17;;;;;;;13.51;39.66;95456.03;6886667;28;20229;-73
2021/04/19 13:12:34;;;;;;;10.30;6.20;;;;;;;13.43;39.94;95456.75;6894040;28;20219;-73
2021/04/19 13:15:55;;;;;;;7.73;6.23;;;;;;;13.41;40.35;95449.91;6884610;28;20291;-72
2021/04/19 13:19:15;;;;;;;8.07;6.70;;;;;;;13.43;41.04;95450.63;6883457;28;20659;-73
2021/04/19 13:22:39;;;;;;;6.60;6.00;;;;;;;13.46;40.84;95445.81;6874428;28;20240;-73
2021/04/19 13:25:59;;;;;;;4.70;4.20;;;;;;;13.48;40.83;95443.00;6905244;28;20216;-72
2021/04/19 13:29:22;;;;;;;5.40;4.50;;;;;;;13.53;40.93;95449.53;6867786;28;20252;-73
2021/04/19 13:32:42;;;;;;;5.00;4.50;;;;;;;13.61;40.62;95443.47;6886230;28;20224;-73
2021/04/19 13:36:05;;;;;;;4.23;3.80;;;;;;;13.65;40.38;95440.34;6895730;28;20220;-74
2021/04/19 13:39:26;;;;;;;4.07;3.67;;;;;;;13.70;39.86;95440.75;6886672;28;21131;-73
2021/04/19 13:42:46;;;;;;;4.23;3.77;;;;;;;13.68;40.21;95439.22;6889075;28;20769;-72
2021/04/19 13:46:07;;;;;;;4.50;4.00;;;;;;;13.71;40.07;95439.75;6891852;28;20300;-72
2021/04/19 13:49:27;;;;;;;7.07;3.83;;;;;;;13.78;39.85;95436.50;6904180;28;20311;-73
2021/04/19 13:52:48;;;;;;;6.97;3.93;;;;;;;13.71;39.33;95429.09;6885519;28;20221;-74
2021/04/19 13:56:08;;;;;;;3.97;3.60;;;;;;;13.68;39.30;95432.03;6882917;28;20275;-74
2021/04/19 13:59:29;;;;;;;3.83;3.50;;;;;;;13.71;38.76;95428.25;6902574;28;20252;-73
2021/04/19 14:02:50;;;;;;;4.10;3.70;;;;;;;13.68;38.39;95429.38;6881117;28;20604;-72
2021/04/19 14:06:10;;;;;;;4.20;3.57;;;;;;;13.77;38.76;95426.81;6897622;28;20213;-73
2021/04/19 14:09:31;;;;;;;5.00;4.50;;;;;;;13.92;38.53;95420.78;6883888;28;20224;-73
2021/04/19 14:12:52;;;;;;;4.37;3.77;;;;;;;13.97;39.00;95418.50;6895797;28;20302;-73
2021/04/19 14:16:13;;;;;;;5.37;4.37;;;;;;;13.90;38.36;95413.91;6891503;28;20213;-74
2021/04/19 14:19:35;;;;;;;4.93;3.83;;;;;;;13.82;38.30;95412.00;6901382;28;20221;-72
2021/04/19 14:22:56;;;;;;;5.97;3.67;;;;;;;13.81;38.34;95410.31;6885613;28;20709;-73
2021/04/19 14:26:16;;;;;;;3.67;3.37;;;;;;;13.86;38.48;95407.19;6897949;28;20732;-72
2021/04/19 14:29:37;;;;;;;4.00;2.43;;;;;;;13.92;37.60;95406.59;6899789;28;20323;-73
2021/04/19 14:32:57;;;;;;;4.57;4.10;;;;;;;13.96;37.61;95397.28;6899012;28;20258;-73
2021/04/19 14:36:20;;;;;;;3.37;3.00;;;;;;;13.94;37.69;95405.44;6894748;28;20324;-72
2021/04/19 14:39:44;;;;;;;4.17;3.50;;;;;;;13.96;38.26;95402.63;6898265;28;20223;-73
2021/04/19 14:43:07;;;;;;;5.30;4.80;;;;;;;14.07;39.12;95405.06;6902178;28;20258;-72
2021/04/19 14:46:29;;;;;;;7.70;5.37;;;;;;;14.11;38.75;95403.75;6896984;28;20255;-73
2021/04/19 14:49:49;;;;;;;7.03;5.30;;;;;;;14.08;38.57;95402.22;6876234;28;20306;-72
2021/04/19 14:53:10;;;;;;;5.50;4.70;;;;;;;14.00;38.83;95398.66;6900090;28;20220;-72
2021/04/19 14:56:30;;;;;;;5.40;4.90;;;;;;;14.00;38.85;95395.97;6882012;28;20611;-72
2021/04/19 14:59:51;;;;;;;6.87;5.20;;;;;;;13.99;38.62;95388.94;6878066;28;20216;-72
2021/04/19 15:03:11;;;;;;;5.10;4.60;;;;;;;13.98;38.91;95388.13;6897696;28;20262;-72
2021/04/19 15:06:32;;;;;;;5.53;5.03;;;;;;;13.93;38.91;95393.06;6878443;28;20597;-72
2021/04/19 15:09:52;;;;;;;5.17;4.67;;;;;;;13.88;38.66;95379.34;6914217;28;20220;-73
2021/04/19 15:13:13;;;;;;;6.33;5.03;;;;;;;13.82;38.90;95388.00;6899790;28;20709;-72
2021/04/19 15:16:33;;;;;;;4.93;4.43;;;;;;;13.77;39.04;95390.28;6888674;28;20922;-72
2021/04/19 15:19:54;;;;;;;6.73;5.33;;;;;;;13.77;39.02;95384.09;6895233;28;20379;-72
2021/04/19 15:23:14;;;;;;;5.43;4.33;;;;;;;13.79;39.17;95384.75;6877542;28;20221;-72
2021/04/19 15:26:35;;;;;;;5.33;4.57;;;;;;;13.82;39.11;95377.31;6877486;28;20267;-74
2021/04/19 15:29:57;;;;;;;5.50;4.60;;;;;;;13.90;39.14;95382.72;6887587;28;20237;-73
2021/04/19 15:33:22;;;;;;;6.70;6.10;;;;;;;13.82;39.27;95381.81;6871561;28;20271;-74
2021/04/19 15:36:46;;;;;;;6.70;6.10;;;;;;;13.73;39.39;95376.38;6886329;28;20729;-72
2021/04/19 15:40:08;;;;;;;7.47;6.57;;;;;;;13.68;39.69;95378.66;6895287;28;20228;-72
2021/04/19 15:43:28;;;;;;;7.33;6.73;;;;;;;13.66;40.00;95387.81;6898618;28;20220;-72
2021/04/19 15:46:49;;;;;;;7.10;6.40;;;;;;;13.60;40.20;95385.75;6884172;28;20224;-73
2021/04/19 15:50:11;;;;;;;7.10;6.27;;;;;;;13.45;40.21;95392.59;6893148;28;20374;-72
2021/04/19 15:53:32;;;;;;;6.90;6.10;;;;;;;13.33;40.40;95382.13;6883680;28;20223;-72